Weather at Levuka Airfield

Public forecast

Using degrees Celsius for public forecast. Weather courtesy of forecast.io.

Closest aviation weather report (METAR) to Levuka Airfield

Closest report is Nausori International Airport, 23.0 nm (42.6 km) SSW. Retrieved 2022/01/17 01:00 UTC (40 minutes ago):

NFNA 170100Z 16004KT 9999 4500NW -SHRA SCT006 BKN017TCU OVC100 25/24 Q1005

Closest aviation forecast (TAF) to Levuka Airfield

Closest forecast is Nausori International Airport, 23.0 nm (42.6 km) SSW. Retrieved 2022-01-17 00:00 UTC (2 hours ago):

TAF NFNA 162326Z 1700/1724 20006KT 9999-SHRA BKN017 TEMPO 1700/1724 5000 TSRA BKN015 FEW018CB